Time;durP1;ratioP1;P1;durP2;ratioP2;P2;SDS_P1;SDS_P2;PMS_P1;PMS_P2;Temp;Humidity;BMP_temperature;BMP_pressure;BME280_temperature;BME280_humidity;BME280_pressure;Samples;Min_cycle;Max_cycle;Signal;HPM_P1;HPM_P2
2021/11/07 00:03:46;;;;;;;;;;;;;;;5.82;81.70;100435.06;4924875;29;19923;-82
2021/11/07 00:11:35;;;;;;;;;;;;;;;5.87;81.66;100424.50;4924180;29;19979;-83
2021/11/07 00:14:00;;;;;;;;;;;;;;;5.86;81.42;100436.78;4924727;29;19919;-82
2021/11/07 00:16:36;;;;;;;;;;;;;;;5.88;81.73;100440.25;4923633;29;19988;-83
2021/11/07 00:21:30;;;;;;;;;;;;;;;5.91;81.78;100440.22;4924828;29;20321;-82
2021/11/07 00:24:06;;;;;;;;;;;;;;;5.92;81.82;100423.56;4924805;29;20014;-82
2021/11/07 00:26:36;;;;;;;;;;;;;;;5.93;81.66;100417.41;4924711;29;19919;-81
2021/11/07 00:29:12;;;;;;;;;;;;;;;5.93;81.77;100416.53;4924375;29;20332;-81
2021/11/07 00:41:50;;;;;;;;;;;;;;;5.98;81.88;100389.31;4924416;29;19926;-81
2021/11/07 00:44:30;;;;;;;;;;;;;;;6.00;81.84;100381.41;4923490;29;19930;-81
2021/11/07 00:47:02;;;;;;;;;;;;;;;6.00;81.75;100381.41;4922327;29;19929;-81
2021/11/07 00:49:34;;;;;;;;;;;;;;;6.01;81.76;100377.88;4924653;29;20014;-81
2021/11/07 00:57:20;;;;;;;;;;;;;;;6.20;82.95;100373.19;4927982;29;19930;-81
2021/11/07 01:00:07;;;;;;;;;;;;;;;6.25;83.44;100366.09;4926764;29;19927;-81
2021/11/07 01:02:34;;;;;;;;;;;;;;;6.27;84.04;100353.78;4927367;29;19923;-81
2021/11/07 01:05:00;;;;;;;;;;;;;;;6.30;84.47;100348.50;4927738;29;19919;-82
2021/11/07 01:07:26;;;;;;;;;;;;;;;6.32;84.89;100362.47;4926674;29;19942;-81
2021/11/07 01:09:52;;;;;;;;;;;;;;;6.32;85.08;100351.94;4928343;29;19919;-81
2021/11/07 01:12:18;;;;;;;;;;;;;;;6.28;85.22;100350.25;4927177;29;19923;-82
2021/11/07 01:14:45;;;;;;;;;;;;;;;6.20;85.47;100352.16;4927300;29;19970;-81
2021/11/07 01:17:10;;;;;;;;;;;;;;;6.05;85.64;100352.38;4932705;29;19923;-81
2021/11/07 01:19:37;;;;;;;;;;;;;;;5.93;85.58;100349.00;4927663;29;19970;-81
2021/11/07 01:22:04;;;;;;;;;;;;;;;5.77;85.04;100344.88;4927327;29;19923;-81
2021/11/07 01:24:35;;;;;;;;;;;;;;;5.55;84.70;100331.16;4927306;29;20017;-81
2021/11/07 01:27:20;;;;;;;;;;;;;;;5.40;85.00;100337.47;4926987;29;19926;-82
2021/11/07 01:29:49;;;;;;;;;;;;;;;5.33;85.92;100339.31;4927324;29;19918;-81
2021/11/07 01:32:16;;;;;;;;;;;;;;;5.26;87.55;100337.66;4926259;29;20260;-80
2021/11/07 01:34:53;;;;;;;;;;;;;;;5.30;89.72;100341.09;4927197;29;19974;-81
2021/11/07 01:37:24;;;;;;;;;;;;;;;5.38;92.41;100337.50;4926514;29;19943;-80
2021/11/07 01:45:07;;;;;;;;;;;;;;;7.64;96.95;100323.94;4926425;29;19927;-83
2021/11/07 01:47:37;;;;;;;;;;;;;;;7.12;100.00;100332.97;4927449;29;20013;-83
2021/11/07 01:50:03;;;;;;;;;;;;;;;6.98;100.00;100333.25;4925363;29;19975;-82
2021/11/07 01:52:28;;;;;;;;;;;;;;;6.91;100.00;100340.41;4926057;29;20009;-82
2021/11/07 01:55:03;;;;;;;;;;;;;;;6.89;100.00;100343.06;4925561;29;20004;-82
2021/11/07 01:57:29;;;;;;;;;;;;;;;6.89;100.00;100343.06;4926016;29;19925;-82
2021/11/07 01:59:57;;;;;;;;;;;;;;;6.91;100.00;100346.53;4926813;29;19923;-82
2021/11/07 02:02:28;;;;;;;;;;;;;;;6.95;100.00;100349.97;4923381;29;19927;-83
2021/11/07 02:04:54;;;;;;;;;;;;;;;6.99;100.00;100353.41;4924038;29;19931;-82
2021/11/07 02:07:20;;;;;;;;;;;;;;;6.99;100.00;100349.03;4927048;29;19929;-82
2021/11/07 02:09:45;;;;;;;;;;;;;;;6.99;100.00;100350.75;4926581;29;19923;-82
2021/11/07 02:12:11;;;;;;;;;;;;;;;7.01;100.00;100341.09;4926980;29;19926;-83
2021/11/07 02:14:36;;;;;;;;;;;;;;;7.00;100.00;100339.34;4925245;29;19919;-82
2021/11/07 02:17:02;;;;;;;;;;;;;;;7.03;100.00;100339.28;4924910;29;20393;-83
2021/11/07 03:22:46;;;;;;;;;;;;;;;7.55;100.00;100296.03;5129124;23;19927;-82
2021/11/07 03:25:11;;;;;;;;;;;;;;;7.58;100.00;100288.03;4922414;29;19923;-83
2021/11/07 03:27:42;;;;;;;;;;;;;;;7.59;100.00;100280.97;4916176;29;20272;-83
2021/11/07 03:31:09;;;;;;;;;;;;;;;7.60;100.00;100272.19;4915130;29;20449;-83
2021/11/07 03:35:44;;;;;;;;;;;;;;;7.64;100.00;100261.53;4914645;29;20009;-83
2021/11/07 03:38:09;;;;;;;;;;;;;;;7.65;100.00;100243.94;4914494;29;20002;-83
2021/11/07 03:40:35;;;;;;;;;;;;;;;7.67;100.00;100222.78;4910046;29;20398;-84
2021/11/07 03:43:01;;;;;;;;;;;;;;;7.71;100.00;100227.09;4908583;29;19942;-84
2021/11/07 03:45:27;;;;;;;;;;;;;;;7.72;100.00;100232.34;4914430;29;19958;-84
2021/11/07 03:47:52;;;;;;;;;;;;;;;7.75;100.00;100224.31;4915808;29;19923;-83
2021/11/07 03:50:19;;;;;;;;;;;;;;;7.73;100.00;100223.50;4914948;29;19919;-84
2021/11/07 03:52:45;;;;;;;;;;;;;;;6.62;100.00;100225.03;4914500;29;19955;-84
2021/11/07 03:55:10;;;;;;;;;;;;;;;4.82;100.00;100224.38;4914269;29;19967;-83
2021/11/07 03:57:35;;;;;;;;;;;;;;;4.07;100.00;100233.91;4914416;29;19919;-83
2021/11/07 04:00:02;;;;;;;;;;;;;;;3.74;100.00;100249.03;4915801;29;19923;-84
2021/11/07 04:02:27;;;;;;;;;;;;;;;3.54;99.68;100257.06;4915631;29;19915;-84
2021/11/07 04:04:52;;;;;;;;;;;;;;;3.37;98.56;100259.78;4915445;29;19931;-83
2021/11/07 04:07:17;;;;;;;;;;;;;;;3.16;97.90;100259.88;4914276;29;19954;-82
2021/11/07 04:09:43;;;;;;;;;;;;;;;3.11;97.66;100265.13;4915416;29;20014;-82
2021/11/07 04:12:08;;;;;;;;;;;;;;;2.93;97.19;100270.47;4915629;29;19942;-82
2021/11/07 04:14:35;;;;;;;;;;;;;;;2.84;97.14;100258.25;4915569;29;19923;-82
2021/11/07 04:17:04;;;;;;;;;;;;;;;2.77;96.73;100254.81;4914800;29;20452;-83
2021/11/07 04:19:29;;;;;;;;;;;;;;;2.66;96.12;100244.38;4914643;29;19975;-83
2021/11/07 04:21:58;;;;;;;;;;;;;;;2.66;95.79;100243.50;4914171;29;19923;-82
2021/11/07 04:24:24;;;;;;;;;;;;;;;2.51;95.23;100239.19;4914690;29;20046;-82
2021/11/07 04:26:49;;;;;;;;;;;;;;;2.40;95.19;100233.13;4917578;29;20410;-82
2021/11/07 04:29:14;;;;;;;;;;;;;;;2.33;94.81;100233.13;4918897;29;20374;-82
2021/11/07 04:31:40;;;;;;;;;;;;;;;2.31;94.36;100232.28;4918878;29;20409;-82
2021/11/07 04:34:05;;;;;;;;;;;;;;;2.16;93.83;100225.31;4918758;29;20289;-82
2021/11/07 04:36:30;;;;;;;;;;;;;;;2.20;94.02;100222.69;4917550;29;19929;-82
2021/11/07 04:38:55;;;;;;;;;;;;;;;2.50;99.39;100219.13;4918696;29;19923;-82
2021/11/07 04:41:21;;;;;;;;;;;;;;;2.60;100.00;100219.97;4918574;29;19951;-83
2021/11/07 04:43:48;;;;;;;;;;;;;;;2.52;100.00;100213.03;4918669;29;20331;-83
2021/11/07 04:46:14;;;;;;;;;;;;;;;2.51;100.00;100202.56;4918530;29;19923;-83
2021/11/07 04:48:40;;;;;;;;;;;;;;;2.41;100.00;100193.00;4917108;29;19973;-82
2021/11/07 04:51:06;;;;;;;;;;;;;;;2.22;100.00;100202.63;4917319;29;20390;-83
2021/11/07 04:53:31;;;;;;;;;;;;;;;2.21;100.00;100186.09;4917021;29;20055;-83
2021/11/07 04:55:56;;;;;;;;;;;;;;;2.12;100.00;100176.53;4918610;29;19930;-83
2021/11/07 04:58:21;;;;;;;;;;;;;;;2.02;100.00;100171.31;4918490;29;19978;-83
2021/11/07 05:00:47;;;;;;;;;;;;;;;1.92;99.36;100166.09;4912804;29;19930;-83
2021/11/07 05:03:12;;;;;;;;;;;;;;;1.89;99.13;100167.84;4917452;29;19927;-83
2021/11/07 05:05:38;;;;;;;;;;;;;;;1.73;98.43;100167.84;4918296;29;20290;-83
2021/11/07 05:08:04;;;;;;;;;;;;;;;1.70;97.84;100161.78;4915005;29;19919;-83
2021/11/07 05:10:29;;;;;;;;;;;;;;;1.60;97.68;100161.78;4924678;29;19919;-83
2021/11/07 05:12:55;;;;;;;;;;;;;;;1.56;97.38;100149.56;4918267;29;19923;-83
2021/11/07 05:15:20;;;;;;;;;;;;;;;1.53;97.04;100128.72;4916775;29;20346;-82
2021/11/07 05:17:46;;;;;;;;;;;;;;;1.45;96.37;100113.03;4918245;29;19923;-83
2021/11/07 05:20:12;;;;;;;;;;;;;;;1.38;95.68;100120.88;4917984;29;20026;-83
2021/11/07 05:22:38;;;;;;;;;;;;;;;1.32;95.11;100121.72;4916598;29;19931;-82
2021/11/07 05:25:08;;;;;;;;;;;;;;;1.20;94.28;100125.22;4918074;29;19920;-83
2021/11/07 05:27:33;;;;;;;;;;;;;;;1.11;93.73;100124.34;4918020;29;19923;-82
2021/11/07 05:29:59;;;;;;;;;;;;;;;1.06;93.13;100126.94;4917963;29;19923;-82
2021/11/07 05:32:24;;;;;;;;;;;;;;;0.94;92.44;100116.47;4917816;29;19966;-82
2021/11/07 05:34:50;;;;;;;;;;;;;;;0.83;92.14;100114.72;4916614;29;19928;-82
2021/11/07 05:37:15;;;;;;;;;;;;;;;0.90;91.97;100120.81;4915202;29;19919;-83
2021/11/07 05:39:40;;;;;;;;;;;;;;;0.77;91.53;100114.72;4917993;29;19982;-83
2021/11/07 05:42:06;;;;;;;;;;;;;;;0.70;91.13;100107.72;4917095;29;19926;-83
2021/11/07 05:44:31;;;;;;;;;;;;;;;0.80;90.81;100111.22;4917497;29;19927;-83
2021/11/07 05:46:56;;;;;;;;;;;;;;;0.64;90.55;100103.38;4917600;29;19991;-83
2021/11/07 13:59:44;;;;;;;;;;;;;;;6.82;100.00;99846.22;4900548;29;19935;-83
2021/11/07 14:02:11;;;;;;;;;;;;;;;6.86;100.00;99849.66;4907742;29;20342;-82
2021/11/07 14:04:44;;;;;;;;;;;;;;;6.93;100.00;99858.28;4906555;29;19926;-82
2021/11/07 14:07:19;;;;;;;;;;;;;;;7.00;100.00;99860.66;4906998;29;19927;-82
2021/11/07 14:09:56;;;;;;;;;;;;;;;7.03;100.00;99862.38;4907925;29;19923;-82
2021/11/07 14:12:26;;;;;;;;;;;;;;;7.03;100.00;99865.88;4906424;29;20354;-82
2021/11/07 14:15:11;;;;;;;;;;;;;;;7.07;100.00;99859.63;4908482;29;19935;-82
2021/11/07 14:17:37;;;;;;;;;;;;;;;7.12;100.00;99869.19;4907828;29;19923;-82
2021/11/07 14:20:04;;;;;;;;;;;;;;;7.12;100.00;99866.53;4907336;29;20416;-83
2021/11/07 14:22:30;;;;;;;;;;;;;;;7.15;100.00;99884.88;4907612;29;19923;-82
2021/11/07 14:25:09;;;;;;;;;;;;;;;7.22;100.00;99875.91;4906595;29;19945;-83
2021/11/07 14:27:55;;;;;;;;;;;;;;;5.73;100.00;99881.25;4905879;29;19919;-82
2021/11/07 14:30:26;;;;;;;;;;;;;;;4.17;100.00;99884.09;4919697;29;19919;-82
2021/11/07 14:33:39;;;;;;;;;;;;;;;3.59;100.00;99879.66;4908174;29;19994;-83
2021/11/07 14:35:42;;;;;;;;;;;;;;;3.35;100.00;99886.06;4899424;29;20042;-82
2021/11/07 14:38:15;;;;;;;;;;;;;;;3.17;100.00;99881.91;4905954;29;20338;-82
2021/11/07 14:46:12;;;;;;;;;;;;;;;2.69;99.79;99879.78;4907266;29;20298;-83
2021/11/07 14:49:02;;;;;;;;;;;;;;;2.63;99.02;99885.94;4906949;29;19923;-83
2021/11/07 14:54:13;;;;;;;;;;;;;;;2.42;96.32;99892.19;4907064;29;19919;-83
2021/11/07 14:56:51;;;;;;;;;;;;;;;2.28;95.37;99894.94;4905942;29;19923;-83
2021/11/07 15:05:10;;;;;;;;;;;;;;;2.00;93.25;99900.34;4906954;29;20273;-83
2021/11/07 15:10:13;;;;;;;;;;;;;;;1.76;91.81;99890.03;4905091;29;19925;-82
2021/11/07 15:12:53;;;;;;;;;;;;;;;1.63;91.29;99899.69;4904505;29;19979;-83
2021/11/07 15:15:46;;;;;;;;;;;;;;;1.61;90.88;99896.19;4905857;29;19927;-83
2021/11/07 15:18:14;;;;;;;;;;;;;;;1.43;90.19;99897.16;4912333;29;19926;-83
2021/11/07 15:20:49;;;;;;;;;;;;;;;1.38;90.08;99898.91;4906582;29;20406;-83
2021/11/07 15:23:26;;;;;;;;;;;;;;;1.26;89.91;99905.91;4906842;29;19924;-82
2021/11/07 15:25:51;;;;;;;;;;;;;;;1.26;89.94;99903.31;4912630;29;20618;-83
2021/11/07 15:28:17;;;;;;;;;;;;;;;1.14;89.88;99890.28;4905605;29;19926;-83
2021/11/07 15:30:42;;;;;;;;;;;;;;;1.12;89.76;99893.75;4905354;29;19919;-82
2021/11/07 15:33:13;;;;;;;;;;;;;;;1.07;89.78;99889.44;4905676;29;20059;-83
2021/11/07 15:35:43;;;;;;;;;;;;;;;1.06;89.79;99889.44;4906630;29;19923;-82
2021/11/07 15:38:11;;;;;;;;;;;;;;;1.07;89.05;99888.56;4906008;29;20015;-82
2021/11/07 15:40:38;;;;;;;;;;;;;;;0.94;88.91;99889.47;4906389;29;19930;-83
2021/11/07 15:43:10;;;;;;;;;;;;;;;0.83;88.90;99899.91;4902880;29;19922;-83
2021/11/07 15:45:51;;;;;;;;;;;;;;;0.76;88.73;99903.41;4905622;29;20434;-83
2021/11/07 15:48:19;;;;;;;;;;;;;;;0.81;88.64;99912.09;4906357;29;20010;-83
2021/11/07 15:50:49;;;;;;;;;;;;;;;0.71;88.48;99911.22;4905464;29;20298;-83
2021/11/07 16:11:06;;;;;;;;;;;;;;;0.49;88.25;99926.88;4905023;29;19967;-83
2021/11/07 16:18:48;;;;;;;;;;;;;;;0.32;87.79;99929.47;4906817;29;19930;-83
2021/11/07 16:21:17;;;;;;;;;;;;;;;0.39;88.07;99929.50;4905598;29;19924;-83
2021/11/07 16:23:43;;;;;;;;;;;;;;;0.71;91.11;99943.38;4912400;29;19923;-83
2021/11/07 16:26:13;;;;;;;;;;;;;;;0.95;93.31;99940.78;4907292;29;19946;-83
2021/11/07 16:28:39;;;;;;;;;;;;;;;1.09;94.56;99934.66;4908324;29;20275;-83
2021/11/07 16:31:10;;;;;;;;;;;;;;;1.45;96.64;99921.50;4910199;29;19924;-84
2021/11/07 16:33:40;;;;;;;;;;;;;;;1.71;98.98;99929.25;4909338;29;19927;-83
2021/11/07 16:36:12;;;;;;;;;;;;;;;1.83;100.00;99928.31;4930597;29;19927;-83
2021/11/07 16:43:43;;;;;;;;;;;;;;;2.08;100.00;99933.41;4910455;29;19931;-83
2021/11/07 16:46:10;;;;;;;;;;;;;;;2.12;100.00;99935.13;4909384;29;19927;-83
2021/11/07 16:48:39;;;;;;;;;;;;;;;2.23;100.00;99938.53;4918046;29;20315;-83
2021/11/07 16:51:14;;;;;;;;;;;;;;;2.28;100.00;99926.31;4916013;29;20005;-84
2021/11/07 16:53:54;;;;;;;;;;;;;;;2.30;100.00;99935.03;4917947;29;19931;-83
2021/11/07 16:56:19;;;;;;;;;;;;;;;2.32;100.00;99930.63;4914039;29;20564;-83
2021/11/07 17:01:17;;;;;;;;;;;;;;;2.43;100.00;99929.72;4916119;29;20290;-83
2021/11/07 17:03:44;;;;;;;;;;;;;;;2.47;100.00;99920.94;4916419;29;20370;-84
2021/11/07 17:08:49;;;;;;;;;;;;;;;2.57;100.00;99929.59;4914776;29;19935;-84
2021/11/07 17:11:16;;;;;;;;;;;;;;;2.64;100.00;99926.91;4914632;29;20367;-84
2021/11/07 17:13:42;;;;;;;;;;;;;;;2.60;100.00;99927.84;4915736;29;20018;-84
2021/11/07 17:16:19;;;;;;;;;;;;;;;2.70;100.00;99926.88;4916592;29;20013;-84
2021/11/07 17:18:46;;;;;;;;;;;;;;;2.89;100.00;99921.47;4915953;29;19923;-84
2021/11/07 17:26:13;;;;;;;;;;;;;;;2.91;100.00;99910.09;4916170;29;19923;-84
2021/11/07 17:31:12;;;;;;;;;;;;;;;3.09;100.00;99911.69;4916864;29;19962;-83
2021/11/07 17:54:43;;;;;;;;;;;;;;;3.47;100.00;99940.94;4916998;29;20441;-83
2021/11/07 17:57:12;;;;;;;;;;;;;;;3.42;100.00;99945.38;4909345;29;19927;-83
2021/11/07 17:59:37;;;;;;;;;;;;;;;3.42;100.00;99943.59;4916212;29;19923;-83
2021/11/07 18:02:03;;;;;;;;;;;;;;;3.44;100.00;99949.69;4916320;29;20390;-83
2021/11/07 18:04:30;;;;;;;;;;;;;;;3.41;100.00;99948.88;4915530;29;19970;-83
2021/11/07 18:07:00;;;;;;;;;;;;;;;3.53;100.00;99955.75;4916150;29;19923;-84
2021/11/07 18:09:27;;;;;;;;;;;;;;;3.55;99.82;99953.97;4916400;29;20279;-83
2021/11/07 18:11:54;;;;;;;;;;;;;;;3.64;98.85;99946.00;4914317;29;20011;-83
2021/11/07 18:14:20;;;;;;;;;;;;;;;3.56;98.65;99947.84;4914300;29;20390;-84
2021/11/07 18:16:46;;;;;;;;;;;;;;;3.66;98.38;99953.84;4915976;29;19930;-85
2021/11/07 18:19:12;;;;;;;;;;;;;;;3.71;97.83;99944.16;4915477;29;20022;-84
2021/11/07 18:21:49;;;;;;;;;;;;;;;3.85;97.56;99946.63;4915788;29;19923;-84
2021/11/07 18:24:23;;;;;;;;;;;;;;;3.80;97.05;99962.41;4914545;29;19931;-85
2021/11/07 18:26:49;;;;;;;;;;;;;;;3.89;96.09;99951.78;4913676;29;20355;-84
2021/11/07 18:29:15;;;;;;;;;;;;;;;3.85;95.67;99955.34;4915463;29;20026;-84
2021/11/07 18:31:40;;;;;;;;;;;;;;;3.93;95.48;99947.38;4914676;29;20006;-84
2021/11/07 18:34:06;;;;;;;;;;;;;;;3.93;95.00;99948.25;4914391;29;19950;-85
2021/11/07 18:36:32;;;;;;;;;;;;;;;4.09;94.62;99954.16;4915459;29;19949;-84
2021/11/07 18:38:57;;;;;;;;;;;;;;;4.09;94.30;99958.53;4914397;29;19954;-84
2021/11/07 18:41:23;;;;;;;;;;;;;;;4.19;93.46;99976.72;4913230;29;20788;-84
2021/11/07 18:43:49;;;;;;;;;;;;;;;4.08;93.53;99994.38;4914551;29;19929;-84
2021/11/07 18:46:14;;;;;;;;;;;;;;;4.17;93.52;100003.88;4915296;29;19927;-85
2021/11/07 18:48:39;;;;;;;;;;;;;;;4.18;93.29;99996.00;4914555;29;20386;-85
2021/11/07 18:51:05;;;;;;;;;;;;;;;4.12;92.63;99985.59;4913214;29;19974;-84
2021/11/07 18:53:30;;;;;;;;;;;;;;;4.28;93.09;99993.25;4913815;29;19923;-85
2021/11/07 18:55:56;;;;;;;;;;;;;;;4.26;92.34;100002.88;4913413;29;20022;-84
2021/11/07 18:58:22;;;;;;;;;;;;;;;4.34;91.81;100003.63;4908858;29;20030;-84
2021/11/07 19:00:47;;;;;;;;;;;;;;;4.34;92.10;100006.25;4913840;29;19931;-84
2021/11/07 19:03:13;;;;;;;;;;;;;;;4.41;92.30;99994.81;4913539;29;19926;-84
2021/11/07 19:05:39;;;;;;;;;;;;;;;4.50;92.18;99991.16;4913949;29;19919;-85
2021/11/07 19:08:04;;;;;;;;;;;;;;;4.43;91.52;99993.00;4915317;29;19919;-85
2021/11/07 19:10:30;;;;;;;;;;;;;;;4.58;91.48;100004.19;4929957;29;19971;-85
2021/11/07 19:12:56;;;;;;;;;;;;;;;4.62;91.10;100008.50;4912691;29;19979;-84
2021/11/07 19:15:22;;;;;;;;;;;;;;;4.63;90.85;100002.38;4915228;29;19974;-85
2021/11/07 19:17:48;;;;;;;;;;;;;;;4.70;90.22;99990.88;4915325;29;20057;-84
2021/11/07 19:20:14;;;;;;;;;;;;;;;4.68;89.39;99990.03;4914909;29;19923;-84
2021/11/07 19:22:39;;;;;;;;;;;;;;;4.74;89.57;99987.31;4915154;29;19923;-84
2021/11/07 19:25:05;;;;;;;;;;;;;;;4.75;89.54;99980.31;4914757;29;19977;-84
2021/11/07 19:27:30;;;;;;;;;;;;;;;4.73;89.08;99982.94;4914183;29;20374;-85
2021/11/07 19:29:57;;;;;;;;;;;;;;;4.75;89.08;99989.03;4915002;29;19925;-84
2021/11/07 19:32:22;;;;;;;;;;;;;;;4.77;88.65;99978.50;4915030;29;19923;-85
2021/11/07 19:34:48;;;;;;;;;;;;;;;4.80;88.80;99986.34;4913904;29;19950;-85
2021/11/07 19:37:14;;;;;;;;;;;;;;;4.78;88.13;99996.88;4914548;29;20041;-85
2021/11/07 19:39:40;;;;;;;;;;;;;;;4.78;88.29;100001.25;4913815;29;20358;-85
2021/11/07 19:42:07;;;;;;;;;;;;;;;4.77;88.09;99994.25;4913390;29;19919;-84
2021/11/07 19:44:32;;;;;;;;;;;;;;;4.82;88.08;99998.56;4913847;29;19930;-84
2021/11/07 19:47:00;;;;;;;;;;;;;;;4.86;88.04;100004.63;4913574;29;19919;-84
2021/11/07 19:51:51;;;;;;;;;;;;;;;4.79;87.88;99997.75;4914760;29;20087;-85
2021/11/07 19:54:18;;;;;;;;;;;;;;;4.82;87.81;99993.31;4914769;29;19919;-85
2021/11/07 19:56:43;;;;;;;;;;;;;;;4.84;88.06;99999.41;4915154;29;19930;-84
2021/11/07 19:59:17;;;;;;;;;;;;;;;4.86;87.93;100004.63;4918651;29;19923;-85
2021/11/07 20:09:23;;;;;;;;;;;;;;;4.93;88.71;100013.25;4916666;29;19927;-84
2021/11/07 20:11:51;;;;;;;;;;;;;;;4.93;88.58;100019.41;4914054;29;19999;-84
2021/11/07 20:14:17;;;;;;;;;;;;;;;4.93;88.90;100015.91;4917120;29;19926;-84
2021/11/07 20:16:46;;;;;;;;;;;;;;;4.93;89.32;100011.53;4917123;29;19928;-84
2021/11/07 20:19:13;;;;;;;;;;;;;;;4.94;89.39;100013.25;4917732;29;19931;-84
2021/11/07 20:21:39;;;;;;;;;;;;;;;4.99;89.13;100002.66;4917313;29;19942;-86
2021/11/07 20:24:05;;;;;;;;;;;;;;;4.98;89.18;100006.19;4917195;29;19919;-84
2021/11/07 20:26:30;;;;;;;;;;;;;;;5.00;89.01;100012.28;4917135;29;19971;-84
2021/11/07 20:28:56;;;;;;;;;;;;;;;5.01;88.98;100014.00;4918236;29;19927;-84
2021/11/07 20:31:22;;;;;;;;;;;;;;;5.06;89.33;100020.06;4917376;29;19926;-85
2021/11/07 20:33:48;;;;;;;;;;;;;;;5.06;89.01;100033.22;4911707;29;19923;-84
2021/11/07 20:36:25;;;;;;;;;;;;;;;5.05;89.19;100024.44;4916755;29;19923;-84
2021/11/07 20:38:54;;;;;;;;;;;;;;;5.08;89.29;100028.78;4916887;29;20298;-84
2021/11/07 20:41:21;;;;;;;;;;;;;;;5.09;89.17;100038.41;4915162;29;20025;-85
2021/11/07 20:43:46;;;;;;;;;;;;;;;5.11;89.36;100035.75;4916677;29;19993;-84
2021/11/07 20:49:12;;;;;;;;;;;;;;;5.14;89.13;100040.94;4918159;29;20030;-84
2021/11/07 20:51:43;;;;;;;;;;;;;;;5.14;89.04;100040.94;4916050;29;19923;-85
2021/11/07 20:54:15;;;;;;;;;;;;;;;5.18;89.12;100034.75;4917384;29;20009;-85
2021/11/07 20:57:04;;;;;;;;;;;;;;;5.22;89.03;100021.53;4915317;29;19919;-85
2021/11/07 21:02:28;;;;;;;;;;;;;;;5.22;88.98;100034.69;4917058;29;19987;-84
2021/11/07 21:04:53;;;;;;;;;;;;;;;5.26;89.06;100041.63;4917037;29;19931;-84
2021/11/07 21:07:23;;;;;;;;;;;;;;;5.30;89.10;100038.91;4915079;29;19930;-84
2021/11/07 21:12:34;;;;;;;;;;;;;;;5.32;89.19;100045.88;4916231;29;20414;-84
2021/11/07 21:27:57;;;;;;;;;;;;;;;5.43;89.37;100059.72;4915493;29;19926;-85
2021/11/07 21:30:26;;;;;;;;;;;;;;;5.42;89.30;100068.47;4915834;29;19919;-85
2021/11/07 21:32:53;;;;;;;;;;;;;;;5.45;89.41;100072.81;4915834;29;19923;-85
2021/11/07 21:35:23;;;;;;;;;;;;;;;5.52;89.65;100073.56;4915886;29;19931;-85
2021/11/07 21:45:32;;;;;;;;;;;;;;;5.56;89.48;100073.50;4916604;29;19979;-84
2021/11/07 21:48:01;;;;;;;;;;;;;;;5.61;89.71;100074.28;4915755;29;19926;-84
2021/11/07 21:50:26;;;;;;;;;;;;;;;5.60;89.54;100076.94;4915019;29;20363;-85
2021/11/07 21:52:51;;;;;;;;;;;;;;;5.66;89.75;100082.09;4914814;29;19966;-84
2021/11/07 21:55:17;;;;;;;;;;;;;;;5.64;89.68;100082.13;4915961;29;19919;-84
2021/11/07 21:57:43;;;;;;;;;;;;;;;5.64;89.53;100090.00;4914207;29;19923;-84
2021/11/07 22:00:10;;;;;;;;;;;;;;;5.66;89.57;100095.22;4914555;29;19994;-85
2021/11/07 22:02:35;;;;;;;;;;;;;;;5.69;89.68;100100.44;4916393;29;20672;-85
2021/11/07 22:05:01;;;;;;;;;;;;;;;5.68;89.74;100092.56;4916082;29;19970;-84
2021/11/07 22:07:26;;;;;;;;;;;;;;;5.72;89.66;100083.75;4916334;29;20067;-84
2021/11/07 22:09:53;;;;;;;;;;;;;;;5.73;89.56;100077.59;4916281;29;20058;-84
2021/11/07 22:12:19;;;;;;;;;;;;;;;5.75;89.42;100086.34;4914450;29;19919;-84
2021/11/07 22:17:34;;;;;;;;;;;;;;;5.77;89.05;100097.69;4916412;29;20010;-84
2021/11/07 22:20:00;;;;;;;;;;;;;;;5.79;89.12;100091.50;4915143;29;19974;-84
2021/11/07 22:22:29;;;;;;;;;;;;;;;5.82;89.01;100087.94;4913347;29;19919;-84
2021/11/07 22:25:00;;;;;;;;;;;;;;;5.87;89.11;100090.47;4914714;29;19947;-84
2021/11/07 22:27:29;;;;;;;;;;;;;;;5.87;88.92;100090.47;4914594;29;19927;-85
2021/11/07 22:30:04;;;;;;;;;;;;;;;5.86;88.97;100094.88;4916064;29;19919;-85
2021/11/07 22:32:32;;;;;;;;;;;;;;;5.89;89.10;100086.94;4915772;29;20278;-86
2021/11/07 22:35:06;;;;;;;;;;;;;;;5.90;89.02;100078.13;4916096;29;19927;-85
2021/11/07 22:37:34;;;;;;;;;;;;;;;5.92;88.82;100092.16;4914704;29;20029;-85
2021/11/07 22:39:59;;;;;;;;;;;;;;;5.94;88.98;100082.44;4915868;29;20268;-85
2021/11/07 22:42:25;;;;;;;;;;;;;;;5.93;88.79;100088.59;4914113;29;19915;-84
2021/11/07 22:44:54;;;;;;;;;;;;;;;5.95;88.76;100099.09;4915552;29;19962;-85
2021/11/07 22:47:24;;;;;;;;;;;;;;;5.96;88.84;100096.47;4915347;29;20002;-84
2021/11/07 22:50:02;;;;;;;;;;;;;;;5.99;88.83;100092.91;4915841;29;19968;-85
2021/11/07 22:52:38;;;;;;;;;;;;;;;6.00;88.80;100092.03;4915570;29;19919;-85
2021/11/07 23:00:26;;;;;;;;;;;;;;;6.05;88.97;100100.69;4915517;29;19934;-84
2021/11/07 23:03:07;;;;;;;;;;;;;;;6.08;88.88;100086.59;4914297;29;19930;-85
2021/11/07 23:08:10;;;;;;;;;;;;;;;6.10;89.03;100103.25;4915461;29;19923;-84
2021/11/07 23:10:36;;;;;;;;;;;;;;;6.12;88.97;100101.44;4914886;29;20065;-84
2021/11/07 23:13:01;;;;;;;;;;;;;;;6.14;88.99;100097.00;4914029;29;19931;-85
2021/11/07 23:15:26;;;;;;;;;;;;;;;6.13;89.13;100104.03;4915361;29;19919;-85
2021/11/07 23:17:52;;;;;;;;;;;;;;;6.15;89.17;100102.25;4913999;29;19959;-84
2021/11/07 23:20:19;;;;;;;;;;;;;;;6.19;89.11;100103.06;4914019;29;19926;-84
2021/11/07 23:22:49;;;;;;;;;;;;;;;6.18;89.12;100102.19;4914625;29;19919;-85
2021/11/07 23:25:19;;;;;;;;;;;;;;;6.21;89.31;100096.00;4914003;29;20337;-85
2021/11/07 23:27:44;;;;;;;;;;;;;;;6.21;89.45;100111.78;4913264;29;19923;-85
2021/11/07 23:30:14;;;;;;;;;;;;;;;6.20;89.25;100106.56;4914771;29;20264;-85
2021/11/07 23:32:40;;;;;;;;;;;;;;;6.22;89.24;100113.50;4913554;29;20158;-85
2021/11/07 23:35:05;;;;;;;;;;;;;;;6.23;89.28;100111.75;4914421;29;19942;-85
2021/11/07 23:37:31;;;;;;;;;;;;;;;6.23;89.23;100110.00;4915056;29;19930;-85
2021/11/07 23:39:59;;;;;;;;;;;;;;;6.24;89.04;100110.84;4915144;29;20252;-85
2021/11/07 23:42:25;;;;;;;;;;;;;;;6.26;89.21;100115.19;4912407;29;19919;-85
2021/11/07 23:44:56;;;;;;;;;;;;;;;6.27;88.88;100110.78;4913687;29;19927;-84
2021/11/07 23:47:22;;;;;;;;;;;;;;;6.28;88.94;100118.66;4914769;29;19926;-85
2021/11/07 23:49:48;;;;;;;;;;;;;;;6.29;89.04;100107.25;4914937;29;20287;-84
2021/11/07 23:54:50;;;;;;;;;;;;;;;6.31;88.86;100105.44;4914732;29;19975;-85
2021/11/07 23:57:30;;;;;;;;;;;;;;;6.33;89.04;100101.03;4913829;29;19923;-85
2021/11/07 23:59:56;;;;;;;;;;;;;;;6.34;89.01;100100.09;4913291;29;19927;-84
